Tous les Résultats et les Classements des Compétitions E.S.F.

MEMORIAL ESF COMBLOUX, le 24/03/2018

Total des 2 Manches



Clt. Identité Code E.S.F. S. An Cat Tps1 Clt1 Tps2 Clt2 Temps
1 PROST JEAN-MICHEL MON22283 E.N.S.A. M 1983 VH1 43.00 1 44.31 1 1:27.31
2 DUBOURGEAL ANTOINE MON22518 ESF COMBLOUX M 1982 VH1 43.06 2 44.40 2 1:27.46
3 MORAND ROMAIN MON19259 ESF COMBLOUX M 1980 VH1 43.36 3 44.92 3 1:28.28
4 CHAMBEL LIONEL MON16883 ESF COMBLOUX M 1978 VH2 43.45 4 45.22 6 1:28.67
5 MEYNET XAVIER MON11942 E.N.S.A. M 1970 VH3 43.76 5 45.41 8 1:29.17
6 BOTTOLLIER-LASQUIN MARC MON19976 ESF COMBLOUX M 1979 VH1 44.18 7 45.29 7 1:29.47
7 BLONDAZ ERIC MON11803 ESF CHAMONIX M 1969 VH3 44.00 6 45.89 11 1:29.89
8 VUILLEMIN CORENTIN MON42727 ESF MEGEVE M 1995 SH 44.55 9 45.59 10 1:30.14
9 DUBREUIL DAVY MON30408 ESF COMBLOUX M 1989 SH 45.17 13 45.07 4 1:30.24
10 SOCQUET-CLERC PAULINE-FLORIANE MON30668 ESF MEGEVE F 1986 D1 44.79 10 45.58 9 1:30.37
11 REY MATHIEU MON30215 ESF ST NICOLAS FLUMET VAL ARLY M 1989 SH 44.53 8 46.71 13 1:31.24
12 STIEMSBERT PIERRE MON26678 ESF ALPE D'HUEZ (L') M 1987 SH 46.30 25 46.24 12 1:32.54
13 VETTER ANTOINE MON31463 ESF MEGEVE M 1990 SH 45.36 14 47.22 18 1:32.58
14 DUPRAZ ANTOINE MON40093 ESF MORZINE M 1993 SH 45.93 18 46.80 14 1:32.73
15 OUVRIER-BUFFET AURELIEN MON31230 ESF ST NICOLAS FLUMET VAL ARLY M 1991 SH 45.42 15 47.58 21 1:33.00
16 LAYMAND YANNICK MON16044 ESF VALMOREL M 1975 VH2 45.43 16 47.86 27 1:33.29
17 BIBIER COCATRIX DAVID MON21969 ESF MEGEVE M 1975 VH2 46.07 20 47.31 19 1:33.38
18 PAGET TANGUY MON40773 ESF FLAINE M 1994 SH 46.40 26 47.01 17 1:33.41
19 YOUT BAPTISTE MON41076 ESF MEGEVE M 1993 SH 46.76 28 46.88 15 1:33.64
20 RIGOLE JULIEN MON26727 ESF ST GERVAIS LES BAINS M 1983 VH1 45.99 19 47.67 24 1:33.66
21 GARNIER MORAN MON41158 U.C.P.A. M 1990 SH 46.08 21 47.65 22 1:33.73
22 BOUCHEX-BELLOMIE XAVIER MON19354 ESF CREST VOLAND M 1981 VH1 45.91 17 48.31 30 1:34.22
23 MOLINES ROMAIN MON42499 ESF FLAINE M 1996 SH 44.90 11 49.45 42 1:34.35
24 BENAND LAURENT MON18062 ESF CHAPELLE D ABONDANCE (LA) M 1978 VH2 46.97 31 47.56 20 1:34.53
25 MOGUEROU ALEXIS MON30531 ESF SAMOENS LES SAIX M 1989 SH 46.26 23 48.30 29 1:34.56
26 MORAND HERVE MON10081 ESF MEGEVE M 1967 VH4 46.49 27 48.36 32 1:34.85
27 OLARU BOGDAN MON42928 ESF MEGEVE M 1989 SH 47.09 32 47.79 25 1:34.88
28 BIBOLLET FRANCK MON26270 ESF ST NICOLAS FLUMET VAL ARLY M 1987 SH 47.75 43 47.83 26 1:35.58
29 MARCHAND LOIC MON40893 ESF MEGEVE M 1994 SH 47.68 42 47.98 28 1:35.66
30 MILLERET CAROLE MON31093 ESF CHAMONIX F 1988 D1 47.23 35 48.50 33 1:35.73
31 FEIGE LUCAS MON41790 ESF MEGEVE M 1996 SH 46.83 29 49.01 37 1:35.84
32 MOURLON PIERRE MON41584 ESF COMBLOUX M 1995 SH 47.19 33 48.87 35 1:36.06
33 BRONDEX JEREMY MON26705 ESF COMBLOUX M 1987 SH 45.16 12 51.19 58 1:36.35
34 LATTION LAURENT MON6749 ESF HOUCHES (LES) M 1963 VH5 47.21 34 49.19 38 1:36.40
35 DUCREY ELSA MON41582 ESF COMBLOUX F 1995 SD 47.50 39 48.93 36 1:36.43
36 GUILLEMET GREGORY MON21367 ESF HOUCHES (LES) M 1974 VH2 47.96 45 48.73 34 1:36.69
37 VETTER GUILLAUME MON22766 ESF MEGEVE M 1984 SH 47.53 40 49.32 39 1:36.85
38 DUCREY HUGO MON44254 ESF COMBLOUX M 1998 SH 47.65 41 49.38 40 1:37.03
39 MONTAGNE YANNICK MON31386 ESF CORRENCON M 1989 SH 47.42 36 49.78 45 1:37.20
40 TRAPPIER FLORENT MON30117 ESF HOUCHES (LES) M 1989 SH 47.42 36 49.94 48 1:37.36
41 FEIGE ANTHONY MON40727 ESF COMBLOUX M 1993 SH 47.89 44 49.77 44 1:37.66
42 POENCIER PAUL MON7984 ESF COMBLOUX M 1960 VH5 48.51 49 49.41 41 1:37.92
43 SENAC ANTHONY MON43339 ESF MEGEVE M 1997 SH 47.47 38 50.58 52 1:38.05
44 GUERIN THIBAUT MON43085 U.C.P.A. M 1993 SH 48.41 48 49.81 46 1:38.22
45 DELMAS MARINE MON40894 ESF MEGEVE F 1993 SD 48.07 46 50.55 51 1:38.62
46 GENTIL VICTOR MON42177 ESF COMBLOUX M 1996 SH 48.83 50 49.91 47 1:38.74
47 PERRIN JEAN-YVES MON23646 ESF COMBLOUX M 1985 SH 48.09 47 50.92 54 1:39.01
48 FOURNIER EMELINE MON31351 ESF PRAZ SUR ARLY F 1991 SD 48.91 51 50.30 49 1:39.21
49 GROSSET-BOURBANGE HEIDI MON42458 ESF COMBLOUX F 1995 SD 49.34 53 51.05 56 1:40.39
50 CHAMBON FREDERIC MON16540 ESF SAISIES (LES) M 1972 VH3 49.48 55 50.94 55 1:40.42
51 VINET RAYMONDE MON13726 ESF NOTRE DAME BELLECOMBE F 1970 D4 49.97 57 51.18 57 1:41.15
52 OUVRIER BUFFET CHRISTIAN MON20299 ESF ST NICOLAS FLUMET VAL ARLY M 1965 VH4 49.89 56 51.58 60 1:41.47
53 CHATRON MICHAUD LUDOVIC MON40188 ESF COMBLOUX M 1993 SH 49.43 54 52.08 64 1:41.51
54 OUVRIER-BUFFET ALEXANDRA MON41303 ESF PRAZ SUR ARLY F 1994 SD 51.12 64 50.49 50 1:41.61
55 MORAND AURELIEN MON41658 ESF MEGEVE M 1995 SH 50.34 58 52.10 65 1:42.44
56 RIVAT IVAN MON30221 ESF COMBLOUX M 1988 SH 50.66 61 51.79 62 1:42.45
57 RECHON REGUET FRANCK MON31843 ESF ST NICOLAS FLUMET VAL ARLY M 1991 SH 51.00 62 51.90 63 1:42.90
58 SAINT MACARY GUILLAUME MON41633 ESF SAISIES (LES) M 1994 SH 51.21 65 51.78 61 1:42.99
59 DUC MARYSE MON10960 ESF SAISIES (LES) F 1968 D5 51.00 62 53.36 66 1:44.36
60 SCHIELE PAUL MON41727 ESF MEGEVE M 1996 SH 51.25 66 54.08 69 1:45.33
61 BLAIX JERMAIN MON42532 ESF COMBLOUX M 1995 SH 52.27 67 54.03 68 1:46.30
62 PONCHAUD REGIS MON10924 ESF COMBLOUX M 1966 VH4 52.89 69 54.00 67 1:46.89
63 DUFOUR LISALINE MON42616 ESF PRAZ DE LYS F 1996 SD 52.35 68 54.83 72 1:47.18
64 BOTTOLLIER-LASQUIN LAURENT MON4815 ESF COMBLOUX M 1948 VH7 54.25 73 54.29 70 1:48.54
65 CAVET ANDRE MON4013 ESF BRASSES (LES) M 1954 VH6 53.82 71 54.74 71 1:48.56
66 BENOIT-GUYOD REMY MON4842 ESF ROUSSES (LES) M 1950 VH7 53.90 72 54.89 73 1:48.79
67 ARNOD-PRIN MAXIME MON269 ESF MEGEVE M 1949 VH7 53.52 70 56.04 74 1:49.56
68 CAPRA FABIEN MON32233 ESF ANNECY SEMNOZ M 1969 VH3 55.12 74 56.40 75 1:51.52
69 HUE ANTHONY MON42055 ESF COMBLOUX M 1978 VH2 55.20 75 57.00 76 1:52.20
70 BAUDIN CAROLINE MON22861 ESF COMBLOUX F 1983 D2 58.11 76 1:00.78 77 1:58.89
ARVIN-BEROD LUCAS MON24302 ESF MEGEVE M 1985 SH ABD 51.36 59 ABD
CHAPET PIERRE MON30051 ESF MEGEVE M 1986 SH ABD 49.52 43 ABD
QUESNAY NICOLAS MON40402 ESF ST NICOLAS FLUMET VAL ARLY M 1993 SH ABD 50.84 53 ABD
MATHERON FELIX MON31848 ESF MEGEVE M 1991 SH 46.20 22 ABD ABD
GIRIER ROMAIN MON24363 ESF MEGEVE M 1984 SH 46.27 24 ABD ABD
BALLESTO LUCAS MON41317 ESF SOMMAND MIEUSSY M 1995 SH 50.55 59 ABD ABD
BONANO LIONEL MON15655 E.N.S.A. M 1974 VH2 ABD 45.21 5 ABD
MARCHAND AURELIE MON42068 ESF MEGEVE F 1992 SD DSQ 46.93 16 DSQ
BRONDEX FLAVIEN MON44256 ESF COMBLOUX M 1999 SH 46.93 30 DSQ DSQ
SOCQUET-JUGLARD RAPHAEL MON41793 ESF COMBLOUX M 1995 SH DSQ 47.65 22 DSQ
AMEYE THIERRY MON3704 ESF MANIGOD M 1955 VH6 49.25 52 DSQ DSQ
PATRIGEON NOLWENN MON23750 ESF MEGEVE F 1980 D2 50.55 59 DSQ DSQ
SOCQUET DOMINIQUE MON9649 ESF COMBLOUX M 1967 VH4 DSQ 48.33 31 DSQ
GLEZ VERONIQUE MON24796 ESF SAMOENS LES SAIX F 1985 D1 ABS ABS ABS
SORREL SEBASTIEN MON32057 ESF COURCHEVEL 1850 M 1985 SH ABS ABS ABS
GRANDCLEMENT THOMAS MON15652 ESF CHAMONIX M 1974 VH2 ABS ABS ABS
COMTAT PIERRE ANDRE MON14091 ESF PRAZ DE LYS M 1972 VH3 ABS ABS ABS
PICOT CHARLES MON44253 ESF COMBLOUX M 1998 SH ABS ABS ABS
DONNER ARTHUR MON43062 ESF COMBLOUX M 1991 SH ABS ABS ABS
TUAZ JORDAN MON41788 ESF COMBLOUX M 1996 SH ABS ABS ABS
SAUVAGE MICHAEL MON23796 E.N.S.A. M 1982 VH1 ABS ABS ABS
ARBEZ MAXIME MON43979 ESF COMBLOUX M 1996 SH ABS ABS ABS